Time;durP1;ratioP1;P1;durP2;ratioP2;P2;SDS_P1;SDS_P2;PMS_P1;PMS_P2;Temp;Humidity;BMP_temperature;BMP_pressure;BME280_temperature;BME280_humidity;BME280_pressure;Samples;Min_cycle;Max_cycle;Signal;HPM_P1;HPM_P2
2021/12/10 00:00:56;;;;;;;14.23;9.43;;;;;;;13.46;100.00;100764.14;1738076;80;21765;-70
2021/12/10 00:03:29;;;;;;;14.00;9.98;;;;;;;13.21;100.00;100770.23;1738472;80;21818;-61
2021/12/10 00:06:07;;;;;;;15.53;10.37;;;;;;;13.30;100.00;100773.88;1688795;82;21651;-62
2021/12/10 00:08:36;;;;;;;24.80;14.23;;;;;;;13.38;100.00;100772.44;1657606;84;21618;-62
2021/12/10 00:11:11;;;;;;;26.97;17.00;;;;;;;13.32;100.00;100778.41;1686944;82;22086;-61
2021/12/10 00:13:43;;;;;;;84.97;43.63;;;;;;;13.38;100.00;100776.36;1739016;80;21254;-61
2021/12/10 00:16:08;;;;;;;114.17;54.83;;;;;;;13.36;100.00;100778.85;1738675;80;22090;-70
2021/12/10 00:18:38;;;;;;;52.83;27.37;;;;;;;13.35;100.00;100774.12;1736912;80;21175;-62
2021/12/10 00:21:05;;;;;;;30.70;18.53;;;;;;;13.24;100.00;100778.55;1736702;80;22076;-66
2021/12/10 00:23:33;;;;;;;28.50;16.93;;;;;;;13.23;100.00;100782.64;1738184;80;21197;-63
2021/12/10 00:26:02;;;;;;;20.70;13.67;;;;;;;13.21;100.00;100777.58;1734433;80;22122;-62
2021/12/10 00:28:34;;;;;;;15.73;10.83;;;;;;;13.31;100.00;100774.19;1737899;80;21244;-61
2021/12/10 00:31:19;;;;;;;17.13;11.73;;;;;;;13.23;100.00;100776.94;1733768;80;21266;-70
2021/12/10 00:33:52;;;;;;;17.57;11.87;;;;;;;13.22;100.00;100779.22;1733967;80;21320;-61
2021/12/10 00:36:19;;;;;;;19.10;11.17;;;;;;;13.36;100.00;100778.85;1737686;80;21261;-62
2021/12/10 00:38:46;;;;;;;19.03;10.37;;;;;;;13.43;100.00;100776.30;1733735;80;21204;-63
2021/12/10 00:41:13;;;;;;;15.73;10.63;;;;;;;13.38;100.00;100769.81;1738560;80;21152;-62
2021/12/10 00:43:41;;;;;;;17.83;11.07;;;;;;;13.49;100.00;100768.50;1737122;80;21139;-62
2021/12/10 00:46:08;;;;;;;20.43;12.60;;;;;;;13.47;100.00;100769.68;1735065;80;21135;-63
2021/12/10 00:48:36;;;;;;;20.23;12.67;;;;;;;13.30;100.00;100768.64;1738462;80;21408;-63
2021/12/10 00:51:05;;;;;;;18.33;11.77;;;;;;;13.17;100.00;100765.05;1745350;80;21140;-63
2021/12/10 00:53:33;;;;;;;24.70;15.87;;;;;;;13.22;100.00;100767.44;1739718;80;21522;-61
2021/12/10 00:56:00;;;;;;;34.97;22.40;;;;;;;13.11;100.00;100768.75;1736427;80;21590;-71
2021/12/10 00:58:28;;;;;;;27.10;15.83;;;;;;;13.07;100.00;100768.00;1739254;80;21121;-61
2021/12/10 01:01:00;;;;;;;29.23;16.50;;;;;;;13.10;100.00;100775.45;1734574;80;21341;-63
2021/12/10 01:03:32;;;;;;;18.85;11.68;;;;;;;13.23;100.00;100773.01;1736906;80;21896;-61
2021/12/10 01:06:02;;;;;;;21.70;12.07;;;;;;;13.28;100.00;100770.62;1731057;80;21031;-70
2021/12/10 01:08:30;;;;;;;18.23;11.63;;;;;;;13.28;100.00;100773.25;1730114;80;21508;-60
2021/12/10 01:11:06;;;;;;;18.03;10.60;;;;;;;13.20;100.00;100775.97;1729897;80;21182;-65
2021/12/10 01:13:35;;;;;;;18.33;10.63;;;;;;;13.24;100.00;100778.55;1737042;80;21330;-59
2021/12/10 01:24:36;;;;;;;18.97;12.50;;;;;;;13.18;100.00;100775.83;1709380;82;21130;-59
2021/12/10 01:27:02;;;;;;;14.57;9.17;;;;;;;13.07;100.00;100779.28;1737027;80;22437;-59
2021/12/10 01:29:34;;;;;;;14.97;9.97;;;;;;;13.21;100.00;100778.88;1706006;82;22350;-59
2021/12/10 01:32:05;;;;;;;15.40;9.40;;;;;;;13.17;100.00;100785.50;1703570;81;21290;-59
2021/12/10 01:34:32;;;;;;;15.38;8.88;;;;;;;13.15;100.00;100790.13;1708887;82;21384;-58
2021/12/10 01:37:01;;;;;;;13.63;9.40;;;;;;;13.23;100.00;100790.50;1737295;80;21057;-58
2021/12/10 01:39:31;;;;;;;16.90;9.70;;;;;;;13.07;100.00;100795.48;1735830;80;21305;-72
2021/12/10 01:42:14;;;;;;;16.13;9.80;;;;;;;13.13;100.00;100793.41;1736221;80;21235;-58
2021/12/10 01:44:31;;;;;;;15.57;10.20;;;;;;;13.02;100.00;100795.20;1699890;82;21234;-59
2021/12/10 01:47:02;;;;;;;23.45;14.78;;;;;;;12.94;100.00;100795.33;1709746;82;21308;-65
2021/12/10 01:49:31;;;;;;;26.33;17.70;;;;;;;13.04;100.00;100792.73;1735692;80;21008;-59
2021/12/10 01:51:59;;;;;;;30.00;19.03;;;;;;;12.99;100.00;100796.88;1736962;81;21637;-59
2021/12/10 01:54:30;;;;;;;23.13;15.67;;;;;;;13.06;100.00;100796.45;1736147;80;21306;-58
2021/12/10 01:56:59;;;;;;;;;;;;;;;13.17;100.00;100790.73;1739367;80;21194;-63
2021/12/10 01:59:27;;;;;;;26.10;17.77;;;;;;;13.39;100.00;100791.07;1735593;80;20146;-59
2021/12/10 02:02:01;;;;;;;25.20;16.77;;;;;;;13.41;100.00;100793.99;1736963;81;21330;-62
2021/12/10 02:04:32;;;;;;;23.83;14.20;;;;;;;13.34;100.00;100793.95;1736137;80;21754;-59
2021/12/10 02:07:00;;;;;;;16.00;11.07;;;;;;;13.57;100.00;100797.67;1735465;80;21123;-59
2021/12/10 02:09:27;;;;;;;19.83;11.27;;;;;;;13.33;100.00;100803.63;1736333;80;21866;-73
2021/12/10 02:11:54;;;;;;;16.60;11.20;;;;;;;13.42;100.00;100799.56;1735228;80;21246;-58
2021/12/10 02:14:23;;;;;;;17.33;10.30;;;;;;;13.19;100.00;100804.45;1736299;80;21217;-59
2021/12/10 02:16:52;;;;;;;17.13;10.50;;;;;;;13.13;100.00;100809.12;1736187;80;21130;-66
2021/12/10 02:19:19;;;;;;;20.00;10.23;;;;;;;13.12;100.00;100808.31;1736348;80;21183;-63
2021/12/10 02:21:46;;;;;;;18.40;9.40;;;;;;;13.22;100.00;100808.02;1736622;80;21315;-60
2021/12/10 02:24:13;;;;;;;20.53;10.93;;;;;;;13.01;100.00;100804.06;1737505;80;21272;-58
2021/12/10 02:26:51;;;;;;;18.20;12.90;;;;;;;12.96;100.00;100807.24;1736482;80;21231;-61
2021/12/10 02:29:23;;;;;;;16.37;11.07;;;;;;;12.87;100.00;100813.06;1736054;80;21409;-58
2021/12/10 02:31:50;;;;;;;16.70;11.97;;;;;;;12.87;100.00;100812.26;1707038;81;21322;-58
2021/12/10 02:34:18;;;;;;;26.70;16.70;;;;;;;12.95;100.00;100816.56;1737090;80;21028;-58
2021/12/10 02:36:45;;;;;;;20.60;14.17;;;;;;;13.08;100.00;100819.34;1729519;80;21316;-60
2021/12/10 02:39:18;;;;;;;16.97;11.43;;;;;;;13.24;100.00;100823.05;1728991;80;21452;-59
2021/12/10 02:41:45;;;;;;;17.67;11.97;;;;;;;13.24;100.00;100818.32;1729437;80;21156;-60
2021/12/10 02:44:16;;;;;;;25.67;16.83;;;;;;;13.06;100.00;100824.74;1730225;80;21330;-59
2021/12/10 02:46:43;;;;;;;27.27;17.33;;;;;;;12.99;100.00;100826.98;1729740;80;21906;-59
2021/12/10 02:49:11;;;;;;;18.43;12.53;;;;;;;13.02;100.00;100830.54;1728280;80;22741;-58
2021/12/10 02:51:39;;;;;;;16.43;11.60;;;;;;;12.95;100.00;100837.50;1731023;80;21870;-59
2021/12/10 02:54:07;;;;;;;17.97;11.57;;;;;;;12.95;100.00;100840.13;1728425;80;21138;-58
2021/12/10 02:56:34;;;;;;;21.00;11.53;;;;;;;12.04;100.00;100836.91;1729754;80;21237;-66
2021/12/10 02:59:03;;;;;;;23.43;15.83;;;;;;;11.95;100.00;100836.68;1726780;80;21806;-60
2021/12/10 03:01:42;;;;;;;22.60;13.70;;;;;;;12.07;100.00;100837.87;1730496;80;21326;-59
2021/12/10 03:04:10;;;;;;;18.70;12.03;;;;;;;12.18;100.00;100838.23;1729388;80;21328;-58
2021/12/10 03:06:44;;;;;;;16.40;9.23;;;;;;;12.03;100.00;100836.60;1738819;80;21820;-59
2021/12/10 03:09:12;;;;;;;16.23;10.83;;;;;;;12.35;100.00;100843.28;1738917;80;21745;-59
2021/12/10 03:11:42;;;;;;;16.47;10.50;;;;;;;12.47;100.00;100848.40;1742164;80;21169;-61
2021/12/10 03:14:10;;;;;;;19.00;11.53;;;;;;;12.51;100.00;100844.93;1736360;80;21241;-62
2021/12/10 03:16:39;;;;;;;18.40;11.80;;;;;;;12.44;100.00;100851.88;1739142;80;21187;-58
2021/12/10 03:19:06;;;;;;;24.83;14.90;;;;;;;12.54;100.00;100853.70;1736452;80;22668;-59
2021/12/10 03:21:33;;;;;;;26.37;16.70;;;;;;;12.61;100.00;100854.13;1736695;80;21360;-58
2021/12/10 03:24:01;;;;;;;23.67;15.43;;;;;;;12.68;100.00;100860.73;1734754;80;21122;-58
2021/12/10 03:26:28;;;;;;;20.13;12.40;;;;;;;12.79;100.00;100858.16;1739333;80;21158;-71
2021/12/10 03:28:55;;;;;;;19.00;11.37;;;;;;;12.74;100.00;100863.13;1734392;80;21652;-58
2021/12/10 03:31:23;;;;;;;16.10;10.53;;;;;;;12.73;100.00;100857.09;1739096;80;21264;-58
2021/12/10 03:33:51;;;;;;;20.70;13.27;;;;;;;12.64;100.00;100852.44;1735511;80;21195;-58
2021/12/10 03:36:19;;;;;;;19.33;12.13;;;;;;;12.76;100.00;100850.66;1734785;80;21251;-58
2021/12/10 03:38:48;;;;;;;14.13;10.40;;;;;;;12.63;100.00;100850.82;1736822;80;21093;-60
2021/12/10 03:41:15;;;;;;;18.20;9.83;;;;;;;12.44;100.00;100857.10;1746891;80;21314;-60
2021/12/10 03:43:43;;;;;;;17.10;11.87;;;;;;;12.41;100.00;100859.06;1749592;80;21340;-58
2021/12/10 03:46:11;;;;;;;14.03;10.73;;;;;;;12.47;100.00;100860.67;1748913;80;21701;-61
2021/12/10 03:48:45;;;;;;;14.20;10.13;;;;;;;12.31;100.00;100862.94;1747430;80;21760;-61
2021/12/10 03:51:14;;;;;;;11.53;8.23;;;;;;;12.03;100.00;100870.07;1704117;81;21291;-69
2021/12/10 03:53:41;;;;;;;13.45;8.63;;;;;;;11.94;100.00;100872.45;1694536;82;22727;-58
2021/12/10 03:56:12;;;;;;;13.40;8.77;;;;;;;12.07;100.00;100864.80;1695348;82;21154;-58
2021/12/10 03:58:39;;;;;;;13.00;8.60;;;;;;;12.22;100.00;100871.36;1667080;84;21181;-69
2021/12/10 04:01:07;;;;;;;32.20;18.53;;;;;;;12.34;100.00;100874.34;1666546;81;22177;-66
2021/12/10 04:03:35;;;;;;;17.53;10.27;;;;;;;12.52;100.00;100881.84;1645007;85;21917;-59
2021/12/10 04:06:03;;;;;;;29.83;16.40;;;;;;;12.37;100.00;100885.76;1644868;87;21384;-60
2021/12/10 04:08:30;;;;;;;31.70;17.83;;;;;;;12.83;100.00;100885.07;1645567;85;21246;-70
2021/12/10 04:10:58;;;;;;;35.90;20.27;;;;;;;12.59;100.00;100887.98;1645273;85;21315;-59
2021/12/10 04:13:25;;;;;;;30.00;15.30;;;;;;;12.52;100.00;100886.58;1644916;87;21385;-65
2021/12/10 04:15:52;;;;;;;16.83;10.40;;;;;;;12.41;100.00;100889.64;1644821;87;21292;-59
2021/12/10 04:18:21;;;;;;;19.27;9.67;;;;;;;12.67;100.00;100887.89;1644760;85;21394;-58
2021/12/10 04:20:48;;;;;;;21.07;12.97;;;;;;;12.49;100.00;100888.73;1644718;87;22140;-70
2021/12/10 04:23:20;;;;;;;29.43;16.43;;;;;;;12.31;100.00;100887.30;1645126;87;21723;-62
2021/12/10 04:25:47;;;;;;;23.20;12.07;;;;;;;12.29;100.00;100892.38;1645625;85;21304;-59
2021/12/10 04:28:17;;;;;;;20.03;10.53;;;;;;;12.36;100.00;100895.91;1645490;85;21341;-59
2021/12/10 04:30:46;;;;;;;13.57;8.13;;;;;;;12.31;100.00;100893.84;1644123;85;21390;-58
2021/12/10 04:33:15;;;;;;;15.57;9.10;;;;;;;12.24;100.00;100892.92;1694735;83;21529;-59
2021/12/10 04:35:44;;;;;;;14.30;9.37;;;;;;;12.28;100.00;100892.08;1694908;83;21191;-59
2021/12/10 04:38:11;;;;;;;17.30;9.87;;;;;;;12.29;100.00;100897.11;1696484;83;21425;-60
2021/12/10 04:40:38;;;;;;;12.57;8.47;;;;;;;12.33;100.00;100900.18;1690514;83;21251;-58
2021/12/10 04:43:06;;;;;;;14.63;8.23;;;;;;;12.29;100.00;100895.00;1696064;84;21828;-59
2021/12/10 04:45:33;;;;;;;16.47;9.83;;;;;;;12.46;100.00;100899.55;1693907;83;22348;-58
2021/12/10 04:48:00;;;;;;;14.53;10.30;;;;;;;12.54;100.00;100903.38;1696086;84;21727;-59
2021/12/10 04:50:28;;;;;;;16.07;10.73;;;;;;;12.48;100.00;100904.92;1695840;84;22668;-67
2021/12/10 04:52:55;;;;;;;14.93;8.73;;;;;;;12.51;100.00;100903.27;1695888;84;21233;-61
2021/12/10 04:55:25;;;;;;;12.37;8.47;;;;;;;12.37;100.00;100910.09;1695999;83;21398;-60
2021/12/10 04:57:52;;;;;;;16.47;10.33;;;;;;;12.32;100.00;100911.14;1696234;84;21324;-58
2021/12/10 05:00:26;;;;;;;14.63;9.13;;;;;;;12.31;100.00;100913.44;1694960;84;21313;-59
2021/12/10 05:02:54;;;;;;;12.83;8.20;;;;;;;12.23;100.00;100918.72;1695294;83;21841;-59
2021/12/10 05:05:21;;;;;;;16.90;9.00;;;;;;;12.30;100.00;100923.56;1694968;84;21703;-60
2021/12/10 05:07:50;;;;;;;14.57;9.87;;;;;;;12.16;100.00;100919.95;1695564;83;21201;-59
2021/12/10 05:10:25;;;;;;;16.00;8.80;;;;;;;12.26;100.00;100923.60;1696033;83;21346;-67
2021/12/10 05:12:52;;;;;;;15.80;9.43;;;;;;;12.23;100.00;100923.14;1695520;83;21241;-67
2021/12/10 05:15:23;;;;;;;18.10;9.83;;;;;;;12.18;100.00;100924.98;1695248;83;21244;-60
2021/12/10 05:17:51;;;;;;;17.70;10.58;;;;;;;12.17;100.00;100922.06;1693194;84;21086;-59
2021/12/10 05:20:31;;;;;;;20.20;11.00;;;;;;;12.20;100.00;100919.10;1702242;83;21131;-69
2021/12/10 05:22:58;;;;;;;18.50;10.63;;;;;;;12.21;100.00;100922.02;1705459;83;21144;-69
2021/12/10 05:25:26;;;;;;;18.33;11.60;;;;;;;12.20;100.00;100927.41;1694052;83;21191;-60
2021/12/10 05:27:54;;;;;;;18.13;11.10;;;;;;;12.23;100.00;100930.48;1695563;83;21253;-59
2021/12/10 05:30:23;;;;;;;17.93;11.13;;;;;;;12.37;100.00;100928.40;1693852;84;21161;-59
2021/12/10 05:32:51;;;;;;;17.47;12.07;;;;;;;12.27;100.00;100930.94;1695399;84;21336;-59
2021/12/10 05:35:20;;;;;;;20.90;12.27;;;;;;;12.34;100.00;100942.32;1695111;83;21817;-65
2021/12/10 05:37:47;;;;;;;21.07;12.27;;;;;;;12.24;100.00;100937.36;1695782;83;22559;-59
2021/12/10 05:40:15;;;;;;;17.60;10.40;;;;;;;12.24;100.00;100942.59;1695389;83;21374;-62
2021/12/10 05:42:44;;;;;;;15.17;9.73;;;;;;;12.36;100.00;100945.08;1696264;83;21138;-62
2021/12/10 05:45:11;;;;;;;17.60;10.50;;;;;;;12.33;100.00;100946.73;1695695;83;21311;-67
2021/12/10 05:47:38;;;;;;;15.37;9.87;;;;;;;12.26;100.00;100948.93;1696169;83;21176;-61
2021/12/10 05:50:07;;;;;;;15.33;9.83;;;;;;;12.24;100.00;100953.05;1696045;83;21755;-60
2021/12/10 05:52:34;;;;;;;15.40;9.37;;;;;;;12.26;100.00;100952.35;1694650;83;21403;-61
2021/12/10 05:55:01;;;;;;;19.23;10.60;;;;;;;12.37;100.00;100958.47;1695120;83;22694;-63
2021/12/10 05:57:29;;;;;;;17.73;11.50;;;;;;;12.41;100.00;100966.27;1695128;84;21359;-60
2021/12/10 05:59:56;;;;;;;15.60;11.03;;;;;;;12.43;100.00;100963.50;1695611;83;21224;-60
2021/12/10 06:02:24;;;;;;;16.43;11.90;;;;;;;12.31;100.00;100964.89;1698651;82;21344;-70
2021/12/10 06:04:51;;;;;;;15.53;10.93;;;;;;;12.35;100.00;100965.69;1703597;82;21175;-61
2021/12/10 06:07:18;;;;;;;16.47;11.63;;;;;;;12.29;100.00;100965.58;1703091;82;21066;-62
2021/12/10 06:09:45;;;;;;;15.87;11.03;;;;;;;12.32;100.00;100969.95;1703929;82;21256;-60
2021/12/10 06:12:12;;;;;;;16.27;10.97;;;;;;;12.45;100.00;100971.15;1703601;82;21218;-60
2021/12/10 06:14:41;;;;;;;14.30;11.03;;;;;;;12.37;100.00;100975.45;1703388;82;21189;-69
2021/12/10 06:17:09;;;;;;;19.33;12.07;;;;;;;12.59;100.00;100977.72;1703195;82;21269;-61
2021/12/10 06:19:37;;;;;;;17.87;12.47;;;;;;;12.38;100.00;100979.69;1702524;83;22004;-62
2021/12/10 06:22:05;;;;;;;20.03;11.90;;;;;;;12.51;100.00;100978.30;1665676;84;21597;-60
2021/12/10 06:24:32;;;;;;;20.07;12.30;;;;;;;12.57;100.00;100979.68;1696411;82;21320;-70
2021/12/10 06:27:00;;;;;;;18.37;12.57;;;;;;;12.73;100.00;100978.73;1695906;82;21874;-68
2021/12/10 06:29:28;;;;;;;18.07;11.70;;;;;;;12.70;100.00;100976.97;1695538;82;21658;-59
2021/12/10 06:31:56;;;;;;;18.57;12.27;;;;;;;12.98;100.00;100975.84;1695646;82;21282;-61
2021/12/10 06:34:24;;;;;;;22.07;13.27;;;;;;;12.99;100.00;100978.77;1696569;82;21314;-59
2021/12/10 06:36:51;;;;;;;20.30;13.20;;;;;;;13.18;100.00;100974.78;1695353;82;21234;-61
2021/12/10 06:39:20;;;;;;;17.03;11.40;;;;;;;13.22;100.00;100980.80;1663636;84;21187;-59
2021/12/10 06:41:50;;;;;;;16.70;11.50;;;;;;;13.33;100.00;100981.68;1695800;82;21319;-59
2021/12/10 06:44:17;;;;;;;22.77;14.30;;;;;;;13.20;100.00;100979.35;1695920;82;22242;-59
2021/12/10 06:46:45;;;;;;;17.43;12.53;;;;;;;13.29;100.00;100980.39;1695627;82;21789;-60
2021/12/10 06:49:12;;;;;;;19.03;11.93;;;;;;;13.30;100.00;100981.23;1695087;82;21915;-60
2021/12/10 06:51:40;;;;;;;17.33;11.30;;;;;;;13.19;100.00;100978.55;1695742;82;22527;-60
2021/12/10 06:54:08;;;;;;;15.53;10.77;;;;;;;13.20;100.00;100983.28;1695745;82;21282;-63
2021/12/10 06:56:36;;;;;;;14.87;9.67;;;;;;;13.05;100.00;100985.91;1695926;82;21304;-65
2021/12/10 06:59:05;;;;;;;15.37;10.40;;;;;;;13.16;100.00;100981.52;1695421;82;21279;-69
2021/12/10 07:01:39;;;;;;;16.07;9.53;;;;;;;13.09;100.00;100985.86;1699725;82;21273;-59
2021/12/10 07:04:10;;;;;;;13.27;8.53;;;;;;;13.05;100.00;100986.71;1692925;82;21118;-61
2021/12/10 07:06:38;;;;;;;20.10;10.03;;;;;;;13.09;100.00;100987.16;1696013;82;21581;-69
2021/12/10 07:09:12;;;;;;;16.70;10.47;;;;;;;13.11;100.00;100989.12;1663902;84;21067;-60
2021/12/10 07:11:39;;;;;;;16.10;9.57;;;;;;;13.15;100.00;100989.87;1695969;82;21172;-62
2021/12/10 07:14:07;;;;;;;13.20;8.83;;;;;;;13.43;100.00;100993.16;1695826;82;21159;-60
2021/12/10 07:16:35;;;;;;;15.17;10.53;;;;;;;13.43;100.00;100993.16;1695444;82;21395;-59
2021/12/10 07:19:04;;;;;;;19.50;13.90;;;;;;;13.42;100.00;100991.55;1695000;82;21852;-66
2021/12/10 07:21:31;;;;;;;27.50;19.27;;;;;;;13.56;100.00;100997.26;1695070;82;22100;-61
2021/12/10 07:24:01;;;;;;;34.40;22.90;;;;;;;13.52;100.00;101000.41;1696133;82;21850;-62
2021/12/10 07:26:30;;;;;;;35.07;23.13;;;;;;;13.51;100.00;101002.72;1695110;82;21327;-62
2021/12/10 07:28:58;;;;;;;25.70;17.37;;;;;;;13.48;100.00;101010.43;1697702;82;21371;-68
2021/12/10 07:31:26;;;;;;;21.47;15.10;;;;;;;13.61;100.00;101015.03;1694931;82;21410;-61
2021/12/10 07:33:54;;;;;;;20.63;13.80;;;;;;;13.74;100.00;101016.98;1698287;82;21288;-65
2021/12/10 07:36:23;;;;;;;21.50;13.97;;;;;;;13.84;100.00;101019.62;1695387;82;21475;-65
2021/12/10 07:38:51;;;;;;;19.57;13.27;;;;;;;14.08;100.00;101025.50;1696030;82;21458;-66
2021/12/10 07:41:21;;;;;;;17.27;11.97;;;;;;;13.68;100.00;101025.09;1663714;83;21840;-62
2021/12/10 07:43:48;;;;;;;18.80;12.43;;;;;;;13.61;100.00;101028.13;1696523;82;21309;-62
2021/12/10 07:46:15;;;;;;;15.30;10.73;;;;;;;13.37;100.00;101028.76;1697583;82;21387;-68
2021/12/10 07:48:43;;;;;;;16.50;11.10;;;;;;;13.50;100.00;101033.84;1695789;82;21445;-62
2021/12/10 07:51:20;;;;;;;16.20;9.97;;;;;;;13.59;100.00;101034.04;1696734;82;21430;-74
2021/12/10 07:53:47;;;;;;;14.97;10.00;;;;;;;13.60;100.00;101027.83;1696525;82;21435;-63
2021/12/10 07:56:14;;;;;;;18.33;11.97;;;;;;;13.65;100.00;101026.77;1695987;82;21442;-74
2021/12/10 07:58:42;;;;;;;17.63;12.47;;;;;;;13.73;100.00;101027.96;1692593;82;21312;-60
2021/12/10 08:01:14;;;;;;;17.37;11.90;;;;;;;13.67;100.00;101025.26;1695267;82;22815;-68
2021/12/10 08:03:42;;;;;;;16.10;11.50;;;;;;;13.67;100.00;101025.26;1696321;82;21514;-61
2021/12/10 08:06:09;;;;;;;19.53;11.40;;;;;;;13.81;100.00;101026.53;1698564;82;21375;-63
2021/12/10 08:08:36;;;;;;;18.10;11.03;;;;;;;13.84;100.00;101027.98;1697206;82;21740;-66
2021/12/10 08:11:04;;;;;;;16.13;10.90;;;;;;;13.80;100.00;101026.73;1668021;84;22040;-62
2021/12/10 08:13:44;;;;;;;20.67;12.93;;;;;;;13.76;100.00;101022.36;1697251;82;21420;-60
2021/12/10 08:16:11;;;;;;;16.23;11.23;;;;;;;13.76;100.00;101022.36;1776372;78;21494;-61
2021/12/10 08:18:39;;;;;;;15.53;11.40;;;;;;;13.76;100.00;101019.73;1781991;78;21237;-60
2021/12/10 08:21:06;;;;;;;18.23;11.83;;;;;;;13.76;100.00;101019.73;1778153;78;21361;-74
2021/12/10 08:23:35;;;;;;;18.10;12.00;;;;;;;13.78;100.00;101016.42;1779837;78;21571;-65
2021/12/10 08:26:02;;;;;;;17.37;11.63;;;;;;;13.97;100.00;101015.00;1775544;78;21796;-62
2021/12/10 08:28:33;;;;;;;17.27;11.30;;;;;;;13.94;100.00;101019.80;1777086;78;21407;-62
2021/12/10 08:31:01;;;;;;;19.37;13.13;;;;;;;13.92;100.00;101020.00;1777750;78;21250;-70
2021/12/10 08:33:28;;;;;;;21.57;12.87;;;;;;;13.91;100.00;101016.27;1761704;78;21460;-61
2021/12/10 08:35:58;;;;;;;21.03;12.70;;;;;;;13.94;100.00;101014.56;1773979;78;21895;-63
2021/12/10 08:38:26;;;;;;;17.77;12.43;;;;;;;13.94;100.00;101014.09;1770797;78;21859;-62
2021/12/10 08:41:01;;;;;;;18.33;11.67;;;;;;;14.03;100.00;101010.84;1768950;78;21365;-60
2021/12/10 08:43:29;;;;;;;18.07;12.57;;;;;;;13.91;100.00;101017.58;1763959;78;21279;-60
2021/12/10 08:45:57;;;;;;;20.27;13.50;;;;;;;13.91;100.00;101013.64;1764512;78;21365;-64
2021/12/10 08:48:26;;;;;;;18.93;11.53;;;;;;;13.93;100.00;101007.70;1773717;78;21292;-63
2021/12/10 08:50:56;;;;;;;15.40;11.27;;;;;;;14.18;100.00;101006.34;1764388;78;21236;-63
2021/12/10 08:53:24;;;;;;;18.70;12.97;;;;;;;14.23;100.00;101005.27;1775609;78;21800;-61
2021/12/10 08:55:54;;;;;;;21.63;14.20;;;;;;;14.03;100.00;101002.47;1777956;78;21389;-59
2021/12/10 08:58:22;;;;;;;23.43;15.07;;;;;;;14.06;100.00;101006.53;1775422;78;21252;-69
2021/12/10 09:00:59;;;;;;;24.87;15.60;;;;;;;14.15;100.00;101002.78;1774852;78;21392;-62
2021/12/10 09:03:26;;;;;;;24.73;14.83;;;;;;;13.86;100.00;100989.28;1771747;78;22669;-60
2021/12/10 09:05:54;;;;;;;23.20;15.97;;;;;;;13.86;100.00;100989.28;1770843;78;22061;-61
2021/12/10 09:08:23;;;;;;;26.43;17.23;;;;;;;13.88;100.00;100993.86;1772352;78;21791;-60
2021/12/10 09:10:51;;;;;;;21.87;16.37;;;;;;;13.78;100.00;100992.83;1774226;78;21301;-76
2021/12/10 09:13:20;;;;;;;21.27;16.03;;;;;;;13.91;100.00;100991.37;1778558;78;21334;-60
2021/12/10 09:15:53;;;;;;;22.10;14.80;;;;;;;13.92;100.00;100991.67;1778584;78;22025;-61
2021/12/10 09:18:19;;;;;;;22.33;15.63;;;;;;;13.91;100.00;100991.37;1768740;78;21372;-60
2021/12/10 09:20:50;;;;;;;22.30;14.17;;;;;;;14.01;100.00;100997.09;1773710;78;21344;-73
2021/12/10 09:23:22;;;;;;;24.32;15.45;;;;;;;14.19;100.00;100995.34;1773258;78;21385;-61
2021/12/10 09:25:51;;;;;;;25.88;15.28;;;;;;;13.99;100.00;100992.55;1781881;78;21489;-63
2021/12/10 09:28:18;;;;;;;22.67;15.83;;;;;;;14.09;100.00;100995.65;1780745;78;21062;-63
2021/12/10 09:30:49;;;;;;;24.87;15.70;;;;;;;14.11;100.00;100996.29;1784829;78;21136;-62
2021/12/10 09:33:17;;;;;;;23.95;16.32;;;;;;;14.13;100.00;100992.99;1769955;78;21323;-65
2021/12/10 09:35:44;;;;;;;23.13;15.83;;;;;;;14.12;100.00;101000.02;1783649;78;21041;-60
2021/12/10 09:38:12;;;;;;;30.07;19.83;;;;;;;14.19;100.00;100997.47;1785335;78;21365;-60
2021/12/10 09:40:42;;;;;;;27.50;18.87;;;;;;;14.12;100.00;101004.45;1780594;78;22178;-61
2021/12/10 09:43:11;;;;;;;22.67;15.80;;;;;;;14.14;100.00;101003.78;1779092;78;22109;-62
2021/12/10 09:45:40;;;;;;;25.10;16.17;;;;;;;14.21;100.00;101006.47;1779466;78;20923;-64
2021/12/10 09:48:08;;;;;;;22.87;15.27;;;;;;;14.10;100.00;101012.52;1774647;78;21722;-59
2021/12/10 09:50:56;;;;;;;25.60;16.40;;;;;;;14.08;100.00;101014.50;1783969;78;21970;-73
2021/12/10 09:53:24;;;;;;;27.13;17.23;;;;;;;14.12;100.00;101013.63;1783618;78;21416;-61
2021/12/10 09:55:51;;;;;;;30.73;18.17;;;;;;;14.05;100.00;101018.84;1776609;78;21362;-61
2021/12/10 09:58:18;;;;;;;26.80;16.90;;;;;;;13.96;100.00;101017.82;1773322;78;21454;-67
2021/12/10 10:00:50;;;;;;;26.90;17.63;;;;;;;14.00;100.00;101015.94;1768654;78;21426;-60
2021/12/10 10:03:19;;;;;;;34.93;20.40;;;;;;;14.11;100.00;101022.50;1770682;78;22531;-61
2021/12/10 10:05:46;;;;;;;34.40;21.27;;;;;;;13.88;100.00;101016.13;1777670;78;21276;-61
2021/12/10 10:08:18;;;;;;;32.13;19.57;;;;;;;13.86;100.00;101016.33;1739278;80;22091;-62
2021/12/10 10:10:48;;;;;;;29.82;18.10;;;;;;;13.75;100.00;101012.88;1774864;78;21192;-62
2021/12/10 10:13:16;;;;;;;27.63;17.10;;;;;;;13.69;100.00;101017.54;1742286;79;21019;-60
2021/12/10 10:15:46;;;;;;;23.63;17.60;;;;;;;13.84;100.00;101022.74;1750942;79;21252;-60
2021/12/10 10:18:15;;;;;;;30.70;18.43;;;;;;;13.84;100.00;101022.74;1751854;79;21464;-60
2021/12/10 10:20:46;;;;;;;26.80;18.83;;;;;;;13.66;100.00;101021.83;1752761;79;21331;-60
2021/12/10 10:23:13;;;;;;;28.83;17.92;;;;;;;13.63;100.00;101019.58;1745339;79;22095;-62
2021/12/10 10:25:43;;;;;;;25.73;17.47;;;;;;;13.66;100.00;101016.59;1742957;79;21674;-63
2021/12/10 10:28:11;;;;;;;25.72;17.70;;;;;;;13.66;100.00;101012.66;1749031;79;21301;-69
2021/12/10 10:30:56;;;;;;;32.20;16.60;;;;;;;13.59;100.00;101007.84;1749984;79;21543;-65
2021/12/10 10:33:19;;;;;;;23.10;16.37;;;;;;;13.49;100.00;101003.41;1744001;81;21311;-62
2021/12/10 10:35:51;;;;;;;25.47;16.73;;;;;;;13.52;100.00;100997.78;1747960;79;22436;-61
2021/12/10 10:38:19;;;;;;;27.95;17.45;;;;;;;13.48;100.00;100996.53;1751893;79;21285;-61
2021/12/10 10:40:52;;;;;;;28.77;19.00;;;;;;;13.46;100.00;101002.47;1746928;79;21542;-61
2021/12/10 10:43:20;;;;;;;30.10;16.83;;;;;;;13.54;100.00;101006.28;1744733;79;21892;-64
2021/12/10 10:45:47;;;;;;;21.67;14.47;;;;;;;13.70;100.00;101007.36;1744734;79;21206;-65
2021/12/10 10:48:15;;;;;;;22.70;15.90;;;;;;;13.84;100.00;101002.59;1746875;79;21331;-60
2021/12/10 10:50:57;;;;;;;27.77;17.63;;;;;;;13.73;100.00;101009.63;1749402;79;21675;-61
2021/12/10 10:53:29;;;;;;;23.85;16.35;;;;;;;13.91;100.00;101009.21;1748001;79;21310;-60
2021/12/10 10:56:05;;;;;;;;;;;;;;;13.25;100.00;101005.31;1751033;79;20936;-70
2021/12/10 10:58:37;;;;;;;22.20;15.43;;;;;;;13.22;100.00;101006.14;1750096;79;20620;-74
2021/12/10 11:01:28;;;;;;;25.70;15.73;;;;;;;12.98;100.00;101009.36;1748570;79;21245;-61
2021/12/10 11:04:03;;;;;;;23.10;15.47;;;;;;;12.93;100.00;101006.48;1748410;79;21292;-60
2021/12/10 11:06:41;;;;;;;27.17;17.17;;;;;;;12.96;100.00;101008.74;1746867;79;21303;-61
2021/12/10 11:09:18;;;;;;;25.93;16.80;;;;;;;13.15;100.00;101010.01;1744155;79;21140;-71
2021/12/10 11:11:51;;;;;;;24.47;15.60;;;;;;;13.11;100.00;101021.84;1751352;79;21355;-73
2021/12/10 11:14:23;;;;;;;27.67;15.83;;;;;;;13.17;100.00;101015.86;1751949;79;21245;-61
2021/12/10 11:16:54;;;;;;;27.35;16.37;;;;;;;12.91;100.00;101011.88;1736812;81;21302;-72
2021/12/10 11:19:24;;;;;;;27.77;16.07;;;;;;;12.93;100.00;101013.02;1712559;81;21103;-64
2021/12/10 11:22:01;;;;;;;20.90;14.03;;;;;;;12.93;100.00;101013.52;1730089;81;22552;-67